Time;durP1;ratioP1;P1;durP2;ratioP2;P2;SDS_P1;SDS_P2;PMS_P1;PMS_P2;Temp;Humidity;BMP_temperature;BMP_pressure;BME280_temperature;BME280_humidity;BME280_pressure;Samples;Min_cycle;Max_cycle;Signal;HPM_P1;HPM_P2
2023/09/10 00:00:52;;;;;;;11.45;2.15;;;44.20;33.50;;;;;;5027648;28;20541;-67
2023/09/10 00:03:18;;;;;;;3.53;2.10;;;44.20;33.10;;;;;;5029174;28;20021;-65
2023/09/10 00:05:45;;;;;;;7.90;1.98;;;44.20;33.50;;;;;;5032099;28;20094;-64
2023/09/10 00:08:11;;;;;;;4.78;1.88;;;44.00;33.30;;;;;;5031934;28;20018;-64
2023/09/10 00:10:39;;;;;;;12.55;2.10;;;44.00;33.40;;;;;;5029232;28;20377;-67
2023/09/10 00:13:05;;;;;;;5.50;2.20;;;44.00;33.60;;;;;;5028879;28;20021;-66
2023/09/10 00:15:32;;;;;;;9.35;2.13;;;44.00;33.80;;;;;;5029682;28;20013;-66
2023/09/10 00:17:59;;;;;;;5.45;2.67;;;43.90;33.90;;;;;;5030062;28;20040;-65
2023/09/10 00:20:27;;;;;;;14.95;8.13;;;43.90;33.80;;;;;;5028646;28;20013;-66
2023/09/10 00:22:53;;;;;;;10.00;4.68;;;43.90;34.10;;;;;;5030450;28;20021;-64
2023/09/10 00:25:19;;;;;;;7.95;3.08;;;43.70;34.60;;;;;;5029083;28;20029;-65
2023/09/10 00:27:46;;;;;;;10.45;2.83;;;43.60;34.20;;;;;;5028313;28;20024;-65
2023/09/10 00:30:12;;;;;;;5.15;2.20;;;43.50;34.20;;;;;;5029749;28;20494;-66
2023/09/10 00:32:39;;;;;;;4.47;1.98;;;43.50;34.20;;;;;;5029905;28;20024;-67
2023/09/10 00:35:07;;;;;;;5.22;2.03;;;43.40;35.10;;;;;;5028813;28;20055;-66
2023/09/10 00:37:34;;;;;;;7.00;1.80;;;43.40;34.80;;;;;;5031772;28;20047;-67
2023/09/10 00:40:00;;;;;;;3.42;2.10;;;43.20;34.70;;;;;;5028977;28;20017;-68
2023/09/10 00:42:27;;;;;;;3.33;2.03;;;43.20;34.70;;;;;;5029804;28;20021;-67
2023/09/10 00:44:53;;;;;;;3.90;2.10;;;43.10;34.70;;;;;;5027697;28;20032;-67
2023/09/10 00:47:20;;;;;;;2.70;1.67;;;43.10;34.90;;;;;;5031487;28;20005;-66
2023/09/10 00:49:48;;;;;;;4.15;2.00;;;43.00;35.00;;;;;;5027544;28;20009;-68
2023/09/10 00:52:17;;;;;;;7.90;2.22;;;42.90;34.80;;;;;;5030658;28;20020;-67
2023/09/10 00:54:43;;;;;;;2.67;1.98;;;42.90;35.00;;;;;;5031650;28;20022;-66
2023/09/10 00:57:11;;;;;;;6.63;2.05;;;42.80;35.60;;;;;;5031218;28;20041;-65
2023/09/10 00:59:37;;;;;;;4.85;2.10;;;42.70;35.60;;;;;;5029340;28;20021;-66
2023/09/10 01:02:04;;;;;;;4.50;2.10;;;42.80;35.70;;;;;;5032425;28;20017;-67
2023/09/10 01:04:30;;;;;;;6.15;2.03;;;42.60;35.90;;;;;;5027582;28;20028;-65
2023/09/10 01:06:57;;;;;;;6.07;1.77;;;42.60;36.10;;;;;;5028526;28;20018;-60
2023/09/10 01:09:23;;;;;;;5.28;2.03;;;42.50;36.00;;;;;;5025789;28;20018;-59
2023/09/10 01:11:53;;;;;;;3.72;2.25;;;42.30;36.10;;;;;;5036181;28;20024;-59
2023/09/10 01:14:49;;;;;;;3.63;1.85;;;42.20;36.60;;;;;;5027848;28;20064;-59
2023/09/10 01:17:18;;;;;;;6.05;2.10;;;42.00;36.40;;;;;;5007719;28;20490;-60
2023/09/10 01:19:50;;;;;;;2.92;1.85;;;41.90;36.70;;;;;;5028781;28;20029;-59
2023/09/10 01:22:54;;;;;;;4.40;1.92;;;41.80;36.60;;;;;;5027381;28;20104;-62
2023/09/10 01:25:21;;;;;;;8.43;2.28;;;41.70;36.70;;;;;;5028749;28;20448;-60
2023/09/10 01:27:48;;;;;;;7.00;2.90;;;41.60;37.10;;;;;;5027281;28;20446;-60
2023/09/10 01:30:14;;;;;;;4.63;2.53;;;41.50;37.40;;;;;;5027028;28;20025;-62
2023/09/10 01:33:02;;;;;;;5.32;2.05;;;41.40;37.50;;;;;;5026848;28;20547;-60
2023/09/10 01:35:58;;;;;;;9.65;2.25;;;41.30;37.70;;;;;;5027716;28;20104;-60
2023/09/10 01:38:38;;;;;;;;;;;41.20;37.80;;;;;;5027036;28;20021;-60
2023/09/10 01:41:15;;;;;;;3.65;1.95;;;41.10;37.80;;;;;;5025332;28;20008;-61
2023/09/10 01:43:44;;;;;;;12.52;2.17;;;41.00;38.00;;;;;;5026417;28;20174;-60
2023/09/10 01:46:12;;;;;;;6.35;2.30;;;40.90;38.30;;;;;;5032932;28;20389;-63
2023/09/10 01:48:40;;;;;;;5.57;2.55;;;40.90;38.10;;;;;;5026369;28;20041;-59
2023/09/10 01:51:06;;;;;;;4.75;2.10;;;40.80;38.10;;;;;;5026834;28;20453;-59
2023/09/10 01:53:32;;;;;;;8.35;2.47;;;40.70;38.00;;;;;;5026772;28;20056;-59
2023/09/10 01:55:59;;;;;;;13.98;2.95;;;40.70;38.50;;;;;;5027267;28;20021;-59
2023/09/10 01:58:25;;;;;;;10.80;2.42;;;40.60;38.60;;;;;;5026707;28;20092;-61
2023/09/10 02:00:52;;;;;;;10.05;3.17;;;40.60;38.70;;;;;;5026240;28;20021;-60
2023/09/10 02:03:18;;;;;;;9.07;2.17;;;40.50;39.00;;;;;;5029994;28;20070;-61
2023/09/10 02:05:45;;;;;;;5.13;2.40;;;40.40;38.80;;;;;;5029384;28;20017;-63
2023/09/10 02:08:11;;;;;;;5.43;2.15;;;40.30;39.10;;;;;;5026806;28;20022;-60
2023/09/10 02:10:37;;;;;;;7.22;2.17;;;40.20;39.30;;;;;;5030467;28;20022;-60
2023/09/10 02:13:04;;;;;;;8.05;2.25;;;40.10;39.50;;;;;;5026216;28;20018;-60
2023/09/10 02:15:32;;;;;;;6.88;2.58;;;40.00;39.50;;;;;;5026817;28;20509;-60
2023/09/10 02:17:58;;;;;;;5.30;2.00;;;40.00;39.50;;;;;;5026776;28;20021;-60
2023/09/10 02:20:24;;;;;;;11.07;2.47;;;39.90;39.80;;;;;;5025545;28;20477;-61
2023/09/10 02:22:51;;;;;;;13.27;2.53;;;39.80;39.90;;;;;;5026337;28;20044;-63
2023/09/10 02:25:17;;;;;;;10.32;3.20;;;41.00;40.10;;;;;;5025652;28;20099;-63
2023/09/10 02:27:44;;;;;;;10.10;2.72;;;42.40;38.10;;;;;;5026120;28;20010;-62
2023/09/10 02:30:10;;;;;;;12.27;3.50;;;43.10;37.70;;;;;;5026962;28;20093;-63
2023/09/10 02:32:40;;;;;;;8.07;2.97;;;43.20;37.60;;;;;;5027662;28;20088;-63
2023/09/10 02:35:07;;;;;;;12.23;3.97;;;43.70;37.40;;;;;;5027664;28;20040;-62
2023/09/10 02:37:33;;;;;;;11.73;3.35;;;43.70;37.10;;;;;;5026383;28;20448;-63
2023/09/10 02:40:00;;;;;;;10.93;3.00;;;43.50;37.60;;;;;;5025137;28;20028;-62
2023/09/10 02:42:26;;;;;;;11.48;3.28;;;43.30;36.80;;;;;;5020365;28;20026;-62
2023/09/10 02:44:52;;;;;;;18.20;4.38;;;43.10;37.70;;;;;;5026024;28;20021;-62
2023/09/10 02:47:19;;;;;;;9.13;3.97;;;43.30;37.80;;;;;;5027989;28;20025;-62
2023/09/10 02:49:45;;;;;;;11.43;3.83;;;43.20;37.80;;;;;;5028494;28;20100;-63
2023/09/10 02:52:12;;;;;;;14.35;3.97;;;43.00;38.10;;;;;;5026738;28;20021;-62
2023/09/10 02:54:38;;;;;;;9.93;3.92;;;42.90;38.20;;;;;;5026952;28;20477;-63
2023/09/10 02:57:05;;;;;;;7.22;4.22;;;42.70;38.40;;;;;;5026731;28;20024;-63
2023/09/10 02:59:31;;;;;;;15.98;4.20;;;42.30;38.00;;;;;;5029210;28;20017;-63
2023/09/10 03:01:58;;;;;;;16.60;4.55;;;41.90;38.10;;;;;;5040103;28;20108;-62
2023/09/10 03:04:24;;;;;;;15.40;4.00;;;41.50;37.90;;;;;;5033230;28;20023;-62
2023/09/10 03:06:51;;;;;;;13.95;4.15;;;41.40;38.40;;;;;;5035111;28;20068;-61
2023/09/10 03:09:18;;;;;;;18.23;4.53;;;41.30;38.70;;;;;;5036554;28;20032;-62
2023/09/10 03:11:45;;;;;;;16.40;5.13;;;41.20;38.70;;;;;;5030164;28;20018;-63
2023/09/10 03:14:12;;;;;;;25.70;5.50;;;41.10;39.20;;;;;;5031025;28;20425;-62
2023/09/10 03:16:39;;;;;;;19.90;5.38;;;41.00;38.90;;;;;;5028977;28;20017;-61
2023/09/10 03:19:06;;;;;;;28.58;4.88;;;41.00;39.40;;;;;;5028718;28;20037;-63
2023/09/10 03:21:33;;;;;;;19.60;4.75;;;41.00;39.20;;;;;;5029274;28;20037;-62
2023/09/10 03:23:59;;;;;;;15.93;4.07;;;41.00;39.00;;;;;;5029291;28;20094;-62
2023/09/10 03:26:26;;;;;;;13.65;4.00;;;40.90;39.50;;;;;;5030646;28;20013;-63
2023/09/10 03:28:52;;;;;;;17.17;4.30;;;41.00;39.50;;;;;;5031224;28;20017;-63
2023/09/10 03:31:18;;;;;;;16.35;4.15;;;41.10;38.90;;;;;;5032447;28;20166;-61
2023/09/10 03:33:45;;;;;;;19.85;4.18;;;41.20;39.40;;;;;;5029344;28;20124;-63
2023/09/10 03:36:11;;;;;;;20.48;4.13;;;41.10;39.20;;;;;;5030684;28;20040;-64
2023/09/10 03:38:38;;;;;;;18.95;4.75;;;40.90;39.40;;;;;;5028966;28;20025;-62
2023/09/10 03:41:04;;;;;;;19.85;4.60;;;41.00;39.60;;;;;;5031009;28;20397;-62
2023/09/10 03:43:31;;;;;;;18.23;4.13;;;41.00;39.90;;;;;;5028902;28;20017;-63
2023/09/10 03:45:57;;;;;;;27.42;4.65;;;40.90;39.90;;;;;;5030981;28;20048;-65
2023/09/10 03:48:24;;;;;;;17.30;3.67;;;40.70;40.00;;;;;;5030337;28;20485;-64
2023/09/10 03:50:50;;;;;;;14.38;3.60;;;40.60;39.90;;;;;;5035833;28;20013;-63
2023/09/10 03:53:17;;;;;;;13.10;3.83;;;40.40;39.70;;;;;;5031668;28;20351;-64
2023/09/10 03:55:44;;;;;;;25.85;3.97;;;40.40;39.60;;;;;;5031441;28;20017;-63
2023/09/10 03:58:10;;;;;;;18.23;3.85;;;40.40;40.00;;;;;;5029841;28;20009;-63
2023/09/10 04:00:37;;;;;;;30.95;4.75;;;40.40;40.30;;;;;;5031305;28;20335;-63
2023/09/10 04:03:05;;;;;;;24.02;4.95;;;40.30;40.10;;;;;;5029171;28;20033;-63
2023/09/10 04:05:31;;;;;;;22.38;4.47;;;40.30;40.80;;;;;;5029840;28;20367;-63
2023/09/10 04:07:58;;;;;;;22.52;4.47;;;40.20;40.40;;;;;;5030499;28;20444;-63
2023/09/10 04:10:26;;;;;;;22.90;4.63;;;40.20;40.40;;;;;;5030352;28;20044;-63
2023/09/10 04:12:53;;;;;;;21.63;4.35;;;40.10;40.50;;;;;;5029958;28;20025;-64
2023/09/10 04:15:19;;;;;;;22.63;5.05;;;40.10;40.10;;;;;;5028123;28;20028;-63
2023/09/10 04:17:46;;;;;;;36.17;5.57;;;40.00;40.30;;;;;;5029479;28;20018;-64
2023/09/10 04:20:13;;;;;;;32.80;5.38;;;39.90;40.00;;;;;;5033206;28;20017;-63
2023/09/10 04:22:39;;;;;;;21.75;5.35;;;39.80;40.40;;;;;;5031710;28;20022;-64
2023/09/10 04:25:06;;;;;;;30.27;5.50;;;39.70;40.30;;;;;;5026650;28;20068;-63
2023/09/10 04:27:32;;;;;;;31.27;5.88;;;39.70;40.30;;;;;;5029289;28;20013;-66
2023/09/10 04:29:59;;;;;;;34.53;5.13;;;39.60;40.20;;;;;;5028934;28;20369;-63
2023/09/10 04:32:26;;;;;;;26.27;5.32;;;39.60;40.10;;;;;;5030862;28;20021;-64
2023/09/10 04:34:52;;;;;;;33.65;5.78;;;39.60;40.20;;;;;;5031152;28;20040;-63
2023/09/10 04:37:19;;;;;;;25.90;6.10;;;39.50;40.40;;;;;;5029035;28;20074;-64
2023/09/10 04:39:45;;;;;;;25.52;5.22;;;39.60;40.70;;;;;;5030303;28;20116;-63
2023/09/10 04:42:11;;;;;;;35.35;5.63;;;39.50;40.40;;;;;;5031273;28;20022;-64
2023/09/10 04:44:38;;;;;;;22.42;5.47;;;39.40;40.20;;;;;;5029209;28;20394;-63
2023/09/10 04:47:04;;;;;;;20.60;5.03;;;39.30;40.30;;;;;;5027033;28;20013;-62
2023/09/10 04:49:31;;;;;;;38.20;6.30;;;39.30;40.10;;;;;;5031287;28;20017;-62
2023/09/10 04:51:57;;;;;;;40.30;7.80;;;39.20;40.10;;;;;;5027729;28;20500;-62
2023/09/10 04:54:23;;;;;;;26.83;5.35;;;39.20;40.20;;;;;;5028858;28;20021;-61
2023/09/10 04:56:53;;;;;;;28.25;5.32;;;39.10;39.90;;;;;;5033035;28;20009;-61
2023/09/10 04:59:20;;;;;;;26.30;4.28;;;39.10;40.00;;;;;;5027261;28;20041;-62
2023/09/10 05:01:47;;;;;;;21.95;4.55;;;39.00;40.30;;;;;;5028229;28;20025;-61
2023/09/10 05:04:14;;;;;;;23.80;4.07;;;39.00;39.50;;;;;;5029713;28;20086;-64
2023/09/10 05:06:40;;;;;;;24.67;4.82;;;39.00;39.60;;;;;;5028262;28;20073;-60
2023/09/10 05:09:08;;;;;;;15.95;4.00;;;39.00;39.30;;;;;;5028806;28;20009;-65
2023/09/10 05:11:34;;;;;;;17.02;3.55;;;38.90;38.90;;;;;;5028162;28;20017;-61
2023/09/10 05:14:01;;;;;;;18.75;4.43;;;38.90;39.30;;;;;;5030685;28;20485;-63
2023/09/10 05:16:27;;;;;;;18.42;4.90;;;38.90;39.20;;;;;;5042168;28;20036;-64
2023/09/10 05:18:55;;;;;;;12.05;4.10;;;38.90;39.30;;;;;;5028816;28;20509;-63
2023/09/10 05:21:21;;;;;;;17.08;4.05;;;38.80;39.40;;;;;;5027813;28;20037;-65
2023/09/10 05:23:47;;;;;;;11.38;4.13;;;38.80;39.60;;;;;;5026049;28;20025;-63
2023/09/10 05:26:14;;;;;;;14.70;3.95;;;38.70;39.60;;;;;;5032332;28;20484;-61
2023/09/10 05:28:40;;;;;;;15.93;3.33;;;38.70;39.60;;;;;;5028572;28;20016;-63
2023/09/10 05:31:09;;;;;;;7.63;3.15;;;38.60;39.90;;;;;;5027653;28;20405;-61
2023/09/10 05:33:36;;;;;;;18.40;3.85;;;38.50;40.00;;;;;;5027631;28;20083;-62
2023/09/10 05:36:02;;;;;;;6.93;2.90;;;38.50;40.20;;;;;;5026407;28;20557;-62
2023/09/10 05:38:29;;;;;;;9.18;3.40;;;38.50;40.30;;;;;;5027771;28;20024;-63
2023/09/10 05:41:01;;;;;;;5.90;3.10;;;38.40;40.50;;;;;;5027909;28;20477;-63
2023/09/10 05:43:32;;;;;;;7.65;3.53;;;38.40;40.60;;;;;;5026054;28;20021;-61
2023/09/10 05:45:58;;;;;;;18.10;3.33;;;38.30;41.00;;;;;;5027208;28;20021;-63
2023/09/10 05:48:25;;;;;;;6.88;2.65;;;38.20;40.90;;;;;;5028322;28;20014;-61
2023/09/10 05:50:56;;;;;;;9.05;3.33;;;38.20;41.40;;;;;;5030017;28;20017;-60
2023/09/10 05:53:23;;;;;;;12.63;3.67;;;38.10;41.20;;;;;;5028282;28;20021;-62
2023/09/10 05:55:50;;;;;;;10.57;4.50;;;38.10;41.50;;;;;;5027488;28;20041;-61
2023/09/10 05:58:16;;;;;;;9.23;3.70;;;38.10;41.30;;;;;;5027461;28;20059;-62
2023/09/10 06:00:42;;;;;;;8.32;4.03;;;38.10;41.40;;;;;;5026840;28;20024;-62
2023/09/10 06:03:09;;;;;;;14.73;4.05;;;38.00;41.30;;;;;;5028306;28;20120;-61
2023/09/10 06:05:36;;;;;;;8.30;4.35;;;38.00;41.40;;;;;;5028141;28;20136;-62
2023/09/10 06:08:02;;;;;;;10.50;5.40;;;38.00;41.30;;;;;;5025524;28;20017;-62
2023/09/10 06:10:29;;;;;;;7.63;5.28;;;37.90;41.30;;;;;;5036636;28;20014;-63
2023/09/10 06:12:55;;;;;;;10.63;6.32;;;37.90;41.30;;;;;;5027125;28;20098;-62
2023/09/10 06:15:21;;;;;;;12.93;6.10;;;37.90;41.40;;;;;;5027408;28;20018;-62
2023/09/10 06:17:48;;;;;;;10.07;5.38;;;37.80;41.30;;;;;;5026601;28;20021;-63
2023/09/10 06:20:15;;;;;;;16.45;8.18;;;37.80;41.50;;;;;;5027502;28;20022;-62
2023/09/10 06:22:41;;;;;;;11.77;6.47;;;37.70;41.40;;;;;;5026555;28;20470;-61
2023/09/10 06:25:08;;;;;;;8.88;4.97;;;37.70;41.40;;;;;;5026936;28;20044;-62
2023/09/10 06:27:34;;;;;;;10.00;4.10;;;37.70;41.50;;;;;;5026584;28;20014;-61
2023/09/10 06:30:01;;;;;;;8.13;3.30;;;37.70;41.60;;;;;;5029239;28;20068;-61
2023/09/10 06:32:27;;;;;;;7.80;3.58;;;37.70;41.60;;;;;;5027473;28;20018;-62
2023/09/10 06:34:53;;;;;;;9.07;4.03;;;37.70;41.70;;;;;;5027578;28;20477;-61
2023/09/10 06:37:20;;;;;;;9.18;3.75;;;37.70;42.00;;;;;;5025681;28;20036;-61
2023/09/10 06:39:46;;;;;;;11.52;3.72;;;37.70;42.00;;;;;;5027062;28;20024;-61
2023/09/10 06:42:13;;;;;;;16.92;3.88;;;37.60;42.00;;;;;;5031226;28;20029;-60
2023/09/10 06:44:43;;;;;;;8.30;3.53;;;37.60;42.10;;;;;;5027193;28;20466;-61
2023/09/10 06:47:12;;;;;;;14.73;3.70;;;37.60;42.50;;;;;;5027148;28;20029;-61
2023/09/10 06:49:39;;;;;;;15.95;2.95;;;37.60;42.40;;;;;;5029996;28;20014;-60
2023/09/10 06:52:06;;;;;;;11.75;2.92;;;37.50;42.30;;;;;;5028136;28;20017;-60
2023/09/10 06:54:33;;;;;;;8.32;2.55;;;37.50;42.60;;;;;;5027893;28;20014;-59
2023/09/10 06:57:00;;;;;;;7.97;2.30;;;37.50;42.50;;;;;;5026011;28;20022;-60
2023/09/10 06:59:28;;;;;;;4.32;2.50;;;37.40;42.70;;;;;;5030801;28;20025;-60
2023/09/10 07:01:55;;;;;;;9.27;3.00;;;37.40;42.90;;;;;;5025740;28;20066;-61
2023/09/10 07:04:23;;;;;;;6.65;3.70;;;37.40;43.00;;;;;;5023746;28;20052;-63
2023/09/10 07:06:51;;;;;;;10.60;4.70;;;37.30;42.90;;;;;;5022515;28;20370;-60
2023/09/10 07:09:22;;;;;;;6.15;3.63;;;37.30;43.70;;;;;;5021843;28;20092;-62
2023/09/10 07:11:52;;;;;;;6.93;2.88;;;37.30;43.30;;;;;;5026036;28;20100;-59
2023/09/10 07:14:20;;;;;;;13.07;3.60;;;37.30;43.30;;;;;;5022297;28;20033;-60
2023/09/10 07:16:48;;;;;;;10.10;3.40;;;37.30;43.40;;;;;;5023095;28;20124;-61
2023/09/10 07:19:15;;;;;;;10.00;3.28;;;37.20;43.40;;;;;;5022671;28;20028;-61
2023/09/10 07:21:41;;;;;;;6.20;3.10;;;37.20;43.30;;;;;;5023726;28;20030;-60
2023/09/10 07:24:09;;;;;;;10.82;2.78;;;37.10;43.80;;;;;;5026189;28;20037;-62
2023/09/10 07:26:38;;;;;;;7.18;3.17;;;37.20;43.50;;;;;;5025213;28;20022;-63
2023/09/10 07:29:06;;;;;;;8.20;2.88;;;37.10;43.50;;;;;;5022564;28;20028;-65
2023/09/10 07:31:33;;;;;;;8.90;2.97;;;37.10;43.30;;;;;;5026499;28;20013;-60
2023/09/10 07:34:04;;;;;;;10.13;2.80;;;37.10;43.50;;;;;;5022923;28;20021;-60
2023/09/10 07:36:30;;;;;;;5.40;2.42;;;37.10;43.60;;;;;;5019615;28;20131;-61
2023/09/10 07:38:57;;;;;;;12.00;2.50;;;37.10;43.50;;;;;;5027957;28;20026;-62
2023/09/10 07:41:23;;;;;;;9.10;2.83;;;37.00;43.60;;;;;;5025124;28;20032;-61
2023/09/10 07:43:50;;;;;;;10.20;2.97;;;37.00;43.80;;;;;;5024705;28;20377;-61
2023/09/10 07:46:16;;;;;;;9.98;2.70;;;37.00;44.00;;;;;;5030123;28;20046;-62
2023/09/10 07:48:43;;;;;;;8.50;2.42;;;36.90;44.40;;;;;;5032438;28;20592;-62
2023/09/10 07:51:09;;;;;;;7.60;2.50;;;36.80;44.20;;;;;;5031308;28;20096;-61
2023/09/10 07:53:35;;;;;;;8.27;2.60;;;36.80;44.40;;;;;;5029216;28;20013;-62
2023/09/10 07:56:03;;;;;;;10.35;2.75;;;36.80;44.80;;;;;;5032579;28;20086;-62
2023/09/10 07:58:30;;;;;;;8.25;2.67;;;36.80;44.90;;;;;;5032075;28;20013;-60
2023/09/10 08:00:57;;;;;;;5.40;2.22;;;36.70;44.90;;;;;;5031470;28;20386;-62
2023/09/10 08:03:23;;;;;;;4.82;2.47;;;36.60;45.40;;;;;;5031223;28;20448;-62
2023/09/10 08:05:50;;;;;;;5.50;2.88;;;36.60;45.40;;;;;;5026223;28;20018;-62
2023/09/10 08:08:16;;;;;;;6.30;2.38;;;36.50;45.60;;;;;;5030003;28;20041;-59
2023/09/10 08:10:45;;;;;;;11.05;2.63;;;36.40;45.70;;;;;;5030514;28;20531;-60
2023/09/10 08:13:15;;;;;;;8.10;2.70;;;36.30;46.20;;;;;;5028746;28;20017;-60
2023/09/10 08:15:42;;;;;;;7.03;2.92;;;36.40;46.30;;;;;;5024583;28;20388;-59
2023/09/10 08:18:11;;;;;;;11.60;4.50;;;36.30;46.90;;;;;;5025223;28;20045;-59
2023/09/10 08:20:42;;;;;;;9.60;2.83;;;36.20;47.10;;;;;;5028277;28;20421;-60
2023/09/10 08:23:09;;;;;;;8.02;4.18;;;36.10;47.00;;;;;;5026288;28;20033;-59
2023/09/10 08:25:36;;;;;;;7.47;2.90;;;36.00;47.50;;;;;;5026448;28;20501;-60
2023/09/10 08:28:03;;;;;;;11.25;5.63;;;35.90;47.60;;;;;;5032482;28;20021;-60
2023/09/10 08:30:31;;;;;;;8.65;4.82;;;35.80;47.50;;;;;;5027727;28;20029;-60
2023/09/10 08:32:58;;;;;;;14.13;6.25;;;35.80;47.60;;;;;;5028518;28;20032;-61
2023/09/10 08:35:42;;;;;;;7.80;3.17;;;35.70;47.90;;;;;;5034576;28;20051;-61
2023/09/10 08:38:08;;;;;;;7.63;3.05;;;35.70;47.90;;;;;;5026118;28;20071;-61
2023/09/10 08:40:42;;;;;;;4.25;2.65;;;35.60;47.80;;;;;;5029318;28;20136;-60
2023/09/10 08:43:13;;;;;;;6.38;2.67;;;35.60;47.50;;;;;;5034524;28;20125;-61
2023/09/10 08:45:40;;;;;;;4.78;2.72;;;35.60;47.40;;;;;;5028416;28;20020;-60
2023/09/10 08:48:07;;;;;;;4.47;2.70;;;35.60;47.00;;;;;;5030609;28;20064;-60
2023/09/10 08:50:34;;;;;;;5.63;2.80;;;35.60;47.10;;;;;;5032833;28;20063;-61
2023/09/10 08:53:02;;;;;;;5.72;2.75;;;35.60;47.20;;;;;;5031736;28;20381;-61
2023/09/10 08:55:30;;;;;;;7.18;3.08;;;35.60;47.30;;;;;;5028128;28;20013;-60
2023/09/10 08:57:57;;;;;;;9.73;3.03;;;35.60;46.80;;;;;;5027964;28;20382;-60
2023/09/10 09:00:24;;;;;;;7.40;3.00;;;35.60;46.60;;;;;;5030709;28;20009;-59
2023/09/10 09:02:52;;;;;;;8.38;3.08;;;35.70;46.50;;;;;;5031323;28;20505;-60
2023/09/10 09:05:18;;;;;;;6.53;3.03;;;35.70;46.50;;;;;;5030591;28;20061;-61
2023/09/10 09:07:57;;;;;;;4.15;2.63;;;35.70;46.40;;;;;;5030750;28;20013;-62
2023/09/10 09:10:28;;;;;;;5.63;2.92;;;35.70;46.30;;;;;;5029167;28;20021;-61
2023/09/10 09:13:01;;;;;;;8.82;2.53;;;35.70;46.00;;;;;;5031198;28;20501;-61
2023/09/10 09:15:28;;;;;;;11.68;2.70;;;35.70;46.10;;;;;;5038612;28;20094;-60
2023/09/10 09:18:00;;;;;;;7.65;2.78;;;35.70;46.00;;;;;;5046683;28;20083;-60
2023/09/10 09:20:27;;;;;;;4.28;2.30;;;35.70;46.40;;;;;;5030664;28;20020;-60
2023/09/10 09:23:03;;;;;;;10.25;2.75;;;35.70;46.50;;;;;;5026402;28;20049;-60
2023/09/10 09:25:29;;;;;;;5.07;2.75;;;35.70;46.40;;;;;;5030729;28;20036;-61
2023/09/10 09:27:57;;;;;;;11.20;4.65;;;35.60;46.60;;;;;;5030608;28;20030;-60
2023/09/10 09:30:24;;;;;;;4.30;2.33;;;35.60;47.10;;;;;;5029250;28;20535;-61
2023/09/10 09:32:50;;;;;;;5.07;2.35;;;35.50;47.30;;;;;;5031032;28;20013;-61
2023/09/10 09:35:18;;;;;;;5.75;2.92;;;35.50;47.00;;;;;;5031080;28;20014;-61
2023/09/10 09:37:45;;;;;;;4.90;2.65;;;35.50;46.90;;;;;;5030557;28;20018;-60
2023/09/10 09:40:12;;;;;;;10.90;2.78;;;35.40;47.00;;;;;;5030719;28;20098;-60
2023/09/10 09:42:39;;;;;;;8.13;2.72;;;35.40;46.80;;;;;;5032700;28;20044;-60
2023/09/10 09:45:06;;;;;;;4.55;2.67;;;35.40;46.80;;;;;;5026489;28;20386;-61
2023/09/10 09:47:33;;;;;;;5.05;2.80;;;35.40;47.30;;;;;;5029585;28;20013;-61
2023/09/10 09:50:00;;;;;;;4.32;2.45;;;35.20;47.40;;;;;;5030467;28;20478;-61
2023/09/10 09:52:26;;;;;;;4.60;2.75;;;35.20;47.50;;;;;;5029231;28;20105;-60
2023/09/10 09:54:53;;;;;;;12.27;2.92;;;35.20;47.70;;;;;;5028520;28;20488;-60
2023/09/10 09:57:19;;;;;;;8.15;3.20;;;35.20;47.60;;;;;;5027267;28;20017;-61
2023/09/10 09:59:48;;;;;;;7.28;2.67;;;35.10;47.90;;;;;;5028090;28;20100;-60
2023/09/10 10:02:16;;;;;;;5.78;2.85;;;35.10;47.70;;;;;;5024483;28;20112;-59
2023/09/10 10:04:46;;;;;;;14.60;3.13;;;35.00;47.60;;;;;;5025805;28;20049;-60
2023/09/10 10:07:14;;;;;;;5.60;3.00;;;35.00;47.90;;;;;;5027038;28;20014;-60
2023/09/10 10:09:42;;;;;;;7.28;2.90;;;35.00;47.50;;;;;;5025355;28;20045;-59
2023/09/10 10:12:08;;;;;;;3.67;2.50;;;35.00;47.90;;;;;;5028062;28;20033;-60
2023/09/10 10:14:36;;;;;;;6.93;3.08;;;35.00;48.20;;;;;;5024820;28;20029;-60
2023/09/10 10:17:04;;;;;;;6.57;2.65;;;34.90;47.70;;;;;;5023644;28;20033;-60
2023/09/10 10:19:31;;;;;;;7.60;3.30;;;34.90;47.70;;;;;;5027443;28;20557;-61
2023/09/10 10:21:59;;;;;;;8.20;2.63;;;34.80;48.10;;;;;;5032549;28;20034;-60
2023/09/10 10:24:26;;;;;;;14.00;3.03;;;34.80;48.50;;;;;;5026391;28;20095;-61
2023/09/10 10:26:54;;;;;;;11.13;3.00;;;34.70;48.40;;;;;;5027945;28;20018;-61
2023/09/10 10:29:22;;;;;;;5.00;2.70;;;34.60;48.60;;;;;;5028305;28;20117;-60
2023/09/10 10:32:00;;;;;;;7.72;3.05;;;34.60;48.80;;;;;;5026922;28;20056;-58
2023/09/10 10:34:30;;;;;;;9.23;2.92;;;34.60;49.00;;;;;;5029067;28;20145;-59
2023/09/10 10:37:03;;;;;;;6.13;2.92;;;34.50;49.00;;;;;;5026285;28;20481;-62
2023/09/10 10:39:49;;;;;;;8.43;2.95;;;34.50;49.20;;;;;;5032185;28;20522;-60
2023/09/10 10:42:21;;;;;;;6.70;3.13;;;34.40;49.60;;;;;;5029886;28;20037;-60
2023/09/10 10:44:50;;;;;;;11.00;3.00;;;34.40;49.30;;;;;;5026614;28;20019;-60
2023/09/10 10:47:20;;;;;;;11.35;3.15;;;34.40;49.40;;;;;;5025866;28;20104;-60
2023/09/10 10:49:57;;;;;;;6.10;2.88;;;34.30;49.30;;;;;;5026435;28;20084;-59
2023/09/10 10:52:35;;;;;;;7.28;2.75;;;34.30;49.80;;;;;;5024129;28;20021;-59
2023/09/10 10:55:02;;;;;;;11.32;2.95;;;34.30;49.30;;;;;;5025522;28;20016;-59
2023/09/10 10:57:30;;;;;;;12.35;3.03;;;34.20;49.60;;;;;;5028056;28;20025;-59
2023/09/10 10:59:57;;;;;;;10.00;6.97;;;34.30;49.40;;;;;;5028474;28;20030;-60
2023/09/10 11:02:24;;;;;;;7.07;3.08;;;34.20;50.10;;;;;;5028100;28;20060;-61
2023/09/10 11:04:56;;;;;;;7.25;3.17;;;34.20;49.80;;;;;;5027311;28;20026;-60
2023/09/10 11:07:23;;;;;;;4.72;2.50;;;34.20;49.30;;;;;;5022043;28;20017;-60
2023/09/10 11:09:50;;;;;;;6.32;2.70;;;34.20;49.30;;;;;;5028465;28;20022;-59
2023/09/10 11:12:16;;;;;;;7.97;2.53;;;34.20;49.30;;;;;;5030039;28;20029;-59
2023/09/10 11:15:03;;;;;;;11.85;3.13;;;34.20;49.20;;;;;;5024469;28;20056;-59
2023/09/10 11:17:32;;;;;;;7.00;2.83;;;34.20;49.20;;;;;;5028768;28;20477;-61
2023/09/10 11:19:59;;;;;;;6.90;2.55;;;34.20;49.20;;;;;;5026462;28;20102;-62
2023/09/10 11:22:27;;;;;;;5.95;2.50;;;34.20;49.50;;;;;;5031836;28;20072;-59
2023/09/10 11:25:06;;;;;;;9.10;2.95;;;34.20;49.00;;;;;;5031659;28;20033;-60
2023/09/10 11:27:34;;;;;;;6.50;2.95;;;34.20;48.90;;;;;;5033489;28;20018;-59
2023/09/10 11:30:05;;;;;;;6.05;2.72;;;34.20;48.60;;;;;;5037341;28;20009;-60
2023/09/10 11:32:32;;;;;;;6.25;2.58;;;34.20;48.70;;;;;;5032461;28;20021;-60
2023/09/10 11:35:20;;;;;;;6.38;2.28;;;34.30;48.60;;;;;;5032619;28;20089;-58
2023/09/10 11:37:55;;;;;;;9.25;2.67;;;34.30;48.40;;;;;;5035645;28;20017;-59
2023/09/10 11:40:22;;;;;;;6.50;2.43;;;34.40;48.10;;;;;;5031853;28;20018;-60
2023/09/10 11:42:50;;;;;;;6.78;2.67;;;34.40;47.70;;;;;;5031533;28;20029;-60
2023/09/10 11:45:19;;;;;;;3.70;2.38;;;34.50;47.60;;;;;;5032367;28;20013;-60
2023/09/10 11:47:50;;;;;;;6.20;2.60;;;34.50;47.90;;;;;;5033338;28;20021;-61
2023/09/10 11:50:26;;;;;;;5.93;2.40;;;34.50;47.50;;;;;;5031174;28;20014;-61
2023/09/10 11:52:53;;;;;;;4.38;2.50;;;34.50;48.00;;;;;;5031363;28;20009;-60
2023/09/10 11:55:20;;;;;;;5.63;2.45;;;34.50;47.50;;;;;;5029432;28;20027;-60
2023/09/10 11:57:46;;;;;;;6.63;2.42;;;34.50;47.70;;;;;;5029897;28;20067;-60
2023/09/10 12:00:16;;;;;;;3.60;2.70;;;34.50;47.70;;;;;;5029018;28;20014;-61
2023/09/10 12:02:43;;;;;;;6.60;2.78;;;34.50;47.60;;;;;;5031718;28;20377;-61
2023/09/10 12:05:09;;;;;;;8.77;2.58;;;34.50;47.70;;;;;;5030752;28;20014;-60
2023/09/10 12:07:36;;;;;;;6.90;2.42;;;34.50;47.80;;;;;;5032768;28;20076;-59
2023/09/10 12:10:03;;;;;;;4.22;2.50;;;34.50;47.80;;;;;;5026908;28;20017;-58
2023/09/10 12:12:34;;;;;;;6.20;2.60;;;34.50;47.70;;;;;;5033722;28;20101;-60
2023/09/10 12:15:02;;;;;;;7.03;2.38;;;34.50;47.70;;;;;;5030125;28;20025;-60
2023/09/10 12:17:28;;;;;;;4.70;2.67;;;34.50;47.60;;;;;;5031155;28;20039;-59
2023/09/10 12:19:56;;;;;;;4.32;2.50;;;34.50;47.60;;;;;;5030905;28;20028;-59
2023/09/10 12:22:22;;;;;;;6.05;2.72;;;34.50;47.60;;;;;;5028237;28;20021;-61
2023/09/10 12:24:49;;;;;;;5.22;2.33;;;34.50;47.70;;;;;;5028122;28;20044;-59
2023/09/10 12:27:15;;;;;;;3.67;2.20;;;34.50;47.70;;;;;;5029407;28;20586;-60
2023/09/10 12:29:42;;;;;;;5.30;2.30;;;34.50;47.60;;;;;;5028902;28;20458;-58
2023/09/10 12:32:09;;;;;;;2.92;2.10;;;34.40;47.70;;;;;;5029462;28;20018;-62
2023/09/10 12:34:37;;;;;;;5.22;2.53;;;34.40;47.70;;;;;;5029805;28;20025;-61
2023/09/10 12:37:03;;;;;;;8.30;2.53;;;34.40;47.70;;;;;;5025682;28;20061;-60
2023/09/10 12:39:33;;;;;;;6.93;3.00;;;34.40;48.10;;;;;;5029393;28;20102;-63
2023/09/10 12:42:02;;;;;;;5.57;2.55;;;34.40;48.10;;;;;;5028676;28;20022;-59
2023/09/10 12:44:30;;;;;;;5.35;2.42;;;34.30;48.30;;;;;;5026338;28;20070;-60
2023/09/10 12:46:58;;;;;;;6.10;2.78;;;34.30;47.90;;;;;;5033672;28;20009;-60